Time;durP1;ratioP1;P1;durP2;ratioP2;P2;SDS_P1;SDS_P2;PMS_P1;PMS_P2;Temp;Humidity;BMP_temperature;BMP_pressure;BME280_temperature;BME280_humidity;BME280_pressure;Samples;Min_cycle;Max_cycle;Signal;HPM_P1;HPM_P2
2021/05/11 00:00:21;;;;;;;8.60;1.73;;;;;;;6.78;76.21;99121.25;4992816;28;20019;-86
2021/05/11 00:02:47;;;;;;;5.15;1.08;;;;;;;6.72;76.64;99114.00;4997798;28;20086;-86
2021/05/11 00:05:13;;;;;;;6.82;1.23;;;;;;;6.67;76.53;99111.06;4963972;28;20026;-85
2021/05/11 00:07:38;;;;;;;6.28;1.20;;;;;;;6.62;76.36;99097.50;4965265;28;20217;-85
2021/05/11 00:10:05;;;;;;;4.68;0.90;;;;;;;6.68;76.41;99115.41;4990430;28;20937;-85
2021/05/11 00:12:30;;;;;;;7.82;1.23;;;;;;;6.66;76.53;99126.28;4996909;28;20026;-85
2021/05/11 00:14:55;;;;;;;5.10;1.48;;;;;;;6.65;76.25;99129.16;4985670;28;20030;-85
2021/05/11 00:17:21;;;;;;;12.25;1.85;;;;;;;6.62;76.90;99129.53;5000952;28;20041;-85
2021/05/11 00:19:46;;;;;;;6.63;1.40;;;;;;;6.68;76.63;99139.44;4983116;28;20487;-86
2021/05/11 00:22:12;;;;;;;6.30;1.50;;;;;;;6.59;76.63;99130.75;4988739;28;20030;-86
2021/05/11 00:24:37;;;;;;;3.35;1.73;;;;;;;6.57;76.78;99138.09;4969755;28;20034;-85
2021/05/11 00:27:03;;;;;;;1.65;0.82;;;;;;;6.49;76.81;99125.69;4969092;28;20033;-85
2021/05/11 00:29:28;;;;;;;4.60;1.30;;;;;;;6.57;77.08;99143.44;4983542;28;20080;-85
2021/05/11 00:31:54;;;;;;;7.15;1.08;;;;;;;6.51;77.01;99147.72;4969078;28;20031;-86
2021/05/11 00:34:19;;;;;;;4.35;0.98;;;;;;;6.23;77.13;99104.88;4984629;28;20027;-85
2021/05/11 00:36:44;;;;;;;4.22;1.17;;;;;;;6.54;76.84;99154.50;4982952;28;20027;-85
2021/05/11 00:39:10;;;;;;;3.92;1.05;;;;;;;6.35;77.05;99127.41;4963929;28;20465;-86
2021/05/11 00:41:35;;;;;;;4.53;1.20;;;;;;;6.49;76.72;99152.41;4961006;28;20035;-86
2021/05/11 00:44:01;;;;;;;6.10;1.40;;;;;;;6.55;76.82;99173.00;4998186;28;20108;-85
2021/05/11 00:46:28;;;;;;;6.15;1.02;;;;;;;6.42;77.01;99151.50;4983512;28;20023;-85
2021/05/11 00:48:54;;;;;;;3.13;1.17;;;;;;;6.47;76.67;99153.59;4982894;28;20126;-85
2021/05/11 00:51:19;;;;;;;11.40;1.08;;;;;;;6.48;77.16;99158.75;4967207;28;20165;-86
2021/05/11 00:53:45;;;;;;;4.25;1.00;;;;;;;6.43;77.05;99150.50;4957335;28;20065;-86
2021/05/11 00:56:11;;;;;;;8.85;1.50;;;;;;;6.27;77.32;99138.19;4967143;28;20058;-85
2021/05/11 00:58:37;;;;;;;3.35;0.82;;;;;;;6.49;77.25;99165.75;4971452;28;20040;-86
2021/05/11 01:01:03;;;;;;;2.67;0.65;;;;;;;6.31;77.00;99139.47;4964699;28;20184;-86
2021/05/11 01:03:28;;;;;;;4.85;1.02;;;;;;;6.50;77.21;99164.72;4974523;28;20118;-86
2021/05/11 01:05:54;;;;;;;2.25;0.80;;;;;;;6.44;77.24;99160.16;4969437;28;20078;-85
2021/05/11 01:08:19;;;;;;;3.85;0.80;;;;;;;6.46;77.17;99168.81;4980794;28;20370;-85
2021/05/11 01:10:45;;;;;;;6.45;1.20;;;;;;;6.38;77.28;99150.22;4998244;28;20042;-85
2021/05/11 01:13:10;;;;;;;6.38;1.27;;;;;;;6.23;77.29;99142.25;4994462;28;20552;-85
2021/05/11 01:15:38;;;;;;;3.97;1.20;;;;;;;6.28;77.42;99145.19;4980868;28;20037;-85
2021/05/11 01:18:09;;;;;;;6.47;1.10;;;;;;;6.37;77.50;99156.56;4979831;28;20031;-85
2021/05/11 01:20:41;;;;;;;7.57;1.50;;;;;;;6.42;77.41;99166.69;4956983;28;20121;-85
2021/05/11 01:23:44;;;;;;;2.00;0.70;;;;;;;6.39;77.69;99165.22;4967004;28;20023;-85
2021/05/11 01:26:13;;;;;;;4.25;1.13;;;;;;;6.38;77.69;99172.41;4968163;28;20105;-85
2021/05/11 01:28:51;;;;;;;5.32;1.05;;;;;;;6.39;78.08;99165.22;4968685;28;20019;-86
2021/05/11 01:32:15;;;;;;;4.80;1.15;;;;;;;6.37;77.73;99164.56;4955707;28;20034;-85
2021/05/11 01:45:59;;;;;;;2.53;1.05;;;;;;;6.42;78.33;99177.38;4968151;28;20069;-85
2021/05/11 01:48:03;;;;;;;8.30;1.48;;;;;;;6.36;78.51;99169.09;4960671;28;20034;-85
2021/05/11 02:22:57;;;;;;;4.53;2.13;;;;;;;6.43;79.14;99190.53;4997216;28;20405;-85
2021/05/11 02:25:23;;;;;;;6.00;1.10;;;;;;;6.44;79.01;99191.38;4956362;28;20027;-85
2021/05/11 02:27:48;;;;;;;6.57;1.10;;;;;;;6.42;79.10;99188.06;4953566;28;20027;-85
2021/05/11 02:30:15;;;;;;;5.20;1.02;;;;;;;6.45;78.87;99203.69;4984063;28;20031;-85
2021/05/11 02:32:41;;;;;;;6.53;1.35;;;;;;;6.46;79.19;99206.19;4996952;28;20038;-86
2021/05/11 02:35:08;;;;;;;7.00;1.48;;;;;;;6.45;79.21;99204.50;4967688;28;20023;-85
2021/05/11 02:37:33;;;;;;;6.78;1.45;;;;;;;6.32;78.91;99183.00;4970333;28;20019;-86
2021/05/11 02:39:59;;;;;;;4.72;1.05;;;;;;;6.19;79.05;99172.16;4970272;28;20460;-85
2021/05/11 02:42:24;;;;;;;4.18;0.90;;;;;;;6.33;79.20;99192.69;4983971;28;20035;-86
2021/05/11 02:44:51;;;;;;;6.90;1.35;;;;;;;6.18;79.46;99171.34;4954071;28;20026;-85
2021/05/11 02:47:16;;;;;;;9.30;1.52;;;;;;;6.39;79.15;99202.59;4986318;28;20035;-86
2021/05/11 02:49:45;;;;;;;6.13;1.25;;;;;;;6.40;79.19;99204.25;4971926;28;20046;-85
2021/05/11 02:52:12;;;;;;;8.93;1.65;;;;;;;6.32;79.25;99191.81;4969892;28;20526;-85
2021/05/11 02:54:37;;;;;;;2.85;1.10;;;;;;;6.21;79.54;99191.50;4966223;28;20109;-85
2021/05/11 02:57:04;;;;;;;6.90;1.30;;;;;;;6.21;79.73;99204.84;4971958;28;20158;-85
2021/05/11 02:59:29;;;;;;;9.15;1.20;;;;;;;6.06;79.65;99187.00;4967366;28;20177;-83
2021/05/11 03:01:54;;;;;;;7.75;1.40;;;;;;;6.21;80.22;99218.19;4966705;28;20542;-84
2021/05/11 03:04:20;;;;;;;4.78;0.90;;;;;;;6.13;80.41;99213.75;5001173;28;20391;-84
2021/05/11 03:06:45;;;;;;;5.78;1.35;;;;;;;6.14;80.47;99216.25;4972294;28;20446;-84
2021/05/11 03:09:12;;;;;;;6.10;1.33;;;;;;;6.13;80.19;99211.09;4952363;28;20027;-85
2021/05/11 03:11:37;;;;;;;9.00;1.80;;;;;;;6.11;80.28;99213.13;4970873;28;20066;-85
2021/05/11 03:14:04;;;;;;;7.68;1.40;;;;;;;6.09;80.53;99213.31;4957265;28;20022;-84
2021/05/11 03:16:34;;;;;;;6.15;1.13;;;;;;;6.05;79.83;99211.19;4964929;28;20117;-85
2021/05/11 03:19:00;;;;;;;9.75;1.73;;;;;;;6.04;80.52;99221.03;4952155;28;20045;-86
2021/05/11 03:21:25;;;;;;;4.78;1.23;;;;;;;6.01;80.51;99215.25;4988053;28;20042;-86
2021/05/11 03:23:50;;;;;;;8.02;1.42;;;;;;;6.06;80.96;99220.84;4981700;28;20490;-84
2021/05/11 03:26:16;;;;;;;4.70;0.90;;;;;;;6.01;80.80;99216.09;4989727;28;20561;-85
2021/05/11 03:28:41;;;;;;;6.50;1.35;;;;;;;6.03;80.70;99219.38;4958508;28;22106;-85
2021/05/11 03:31:07;;;;;;;6.47;0.93;;;;;;;6.01;80.99;99220.59;4988300;28;20030;-83
2021/05/11 03:33:32;;;;;;;5.13;1.30;;;;;;;6.05;80.78;99225.34;4985185;28;20155;-85
2021/05/11 03:35:57;;;;;;;4.85;1.23;;;;;;;6.00;80.76;99219.75;4973575;28;20038;-85
2021/05/11 03:38:23;;;;;;;7.20;1.65;;;;;;;6.00;80.56;99225.06;4971593;28;20600;-85
2021/05/11 03:40:49;;;;;;;5.18;1.23;;;;;;;5.99;80.91;99220.75;4972630;28;20034;-85
2021/05/11 03:43:18;;;;;;;5.55;1.15;;;;;;;5.96;80.69;99226.47;5003410;28;20027;-85
2021/05/11 03:45:49;;;;;;;4.53;1.30;;;;;;;6.02;81.00;99236.41;4971977;28;20053;-86
2021/05/11 03:48:15;;;;;;;6.07;1.02;;;;;;;5.99;80.72;99242.09;4993791;28;20063;-85
2021/05/11 03:50:40;;;;;;;5.07;1.17;;;;;;;6.06;80.82;99232.38;4968560;28;20044;-84
2021/05/11 03:53:05;;;;;;;5.47;1.17;;;;;;;6.09;80.73;99248.00;5005981;28;20042;-85
2021/05/11 03:55:31;;;;;;;6.10;1.20;;;;;;;5.85;80.48;99208.22;4980107;28;20505;-84
2021/05/11 03:57:56;;;;;;;5.40;1.30;;;;;;;6.09;80.53;99248.00;4967106;28;20029;-85
2021/05/11 04:00:22;;;;;;;5.88;1.27;;;;;;;6.12;80.54;99242.28;5003365;28;20028;-84
2021/05/11 04:02:47;;;;;;;7.15;1.10;;;;;;;5.89;80.05;99210.31;5001690;28;20193;-84
2021/05/11 04:05:15;;;;;;;3.75;1.08;;;;;;;6.11;80.54;99237.97;4981072;28;20415;-84
2021/05/11 04:07:41;;;;;;;6.70;1.10;;;;;;;5.95;79.96;99219.47;4985403;28;20260;-84
2021/05/11 04:10:51;;;;;;;7.25;1.23;;;;;;;6.09;80.52;99247.19;4965402;28;20117;-84
2021/05/11 04:18:25;;;;;;;3.85;1.20;;;;;;;5.97;81.08;99257.47;4973476;28;20061;-85
2021/05/11 04:20:50;;;;;;;6.43;1.40;;;;;;;5.94;81.04;99250.66;4971712;28;20015;-85
2021/05/11 04:23:16;;;;;;;7.00;1.33;;;;;;;5.91;81.47;99247.50;4971359;28;20101;-85
2021/05/11 04:25:44;;;;;;;5.13;1.33;;;;;;;5.93;81.54;99251.69;4967051;28;20023;-86
2021/05/11 04:28:09;;;;;;;5.72;1.55;;;;;;;5.89;81.53;99246.84;4965184;28;20041;-85
2021/05/11 04:30:34;;;;;;;7.32;1.40;;;;;;;5.89;81.69;99247.66;4967470;28;20449;-85
2021/05/11 04:33:00;;;;;;;10.98;1.77;;;;;;;5.88;81.76;99253.22;4971546;28;20502;-85
2021/05/11 04:35:25;;;;;;;5.25;1.20;;;;;;;5.88;81.88;99246.03;4984166;28;20045;-85
2021/05/11 04:37:51;;;;;;;6.47;1.38;;;;;;;5.98;82.01;99252.94;4967664;28;20077;-85
2021/05/11 04:40:16;;;;;;;6.68;1.38;;;;;;;5.87;82.05;99227.53;4987929;28;20114;-85
2021/05/11 04:42:43;;;;;;;5.25;1.15;;;;;;;5.80;81.91;99213.28;4982953;28;20505;-85
2021/05/11 04:45:10;;;;;;;9.00;1.80;;;;;;;5.98;81.75;99253.81;4971657;28;20026;-85
2021/05/11 04:47:49;;;;;;;4.68;1.17;;;;;;;5.86;81.61;99231.22;4970205;28;20220;-86
2021/05/11 04:50:17;;;;;;;9.38;1.50;;;;;;;5.97;82.04;99253.97;4968214;28;20033;-85
2021/05/11 04:52:42;;;;;;;4.85;1.45;;;;;;;6.03;81.91;99266.56;4988814;28;20064;-85
2021/05/11 04:55:09;;;;;;;7.05;1.52;;;;;;;6.00;81.60;99259.75;4994487;28;20093;-85
2021/05/11 04:57:35;;;;;;;3.58;1.15;;;;;;;5.94;81.31;99260.50;4971725;28;20027;-85
2021/05/11 05:00:03;;;;;;;3.33;1.17;;;;;;;5.77;80.74;99259.81;4971985;28;20022;-85
2021/05/11 05:02:28;;;;;;;6.50;1.10;;;;;;;5.60;81.25;99276.97;4966491;28;20178;-85
2021/05/11 05:04:54;;;;;;;5.78;1.05;;;;;;;5.58;81.38;99276.31;4971997;28;20019;-85
2021/05/11 05:07:19;;;;;;;5.65;1.23;;;;;;;5.41;81.20;99283.63;4965474;28;20047;-85
2021/05/11 05:09:44;;;;;;;5.03;1.23;;;;;;;5.27;81.74;99280.72;4965163;28;20069;-86
2021/05/11 05:12:10;;;;;;;7.60;1.20;;;;;;;5.21;82.59;99281.44;4985833;28;20038;-85
2021/05/11 05:14:35;;;;;;;6.60;1.40;;;;;;;5.26;83.03;99288.88;4973961;28;20031;-85
2021/05/11 05:17:00;;;;;;;7.05;1.20;;;;;;;5.26;83.15;99289.72;4986903;28;20158;-85
2021/05/11 05:19:26;;;;;;;7.35;1.33;;;;;;;5.26;83.15;99276.38;4966977;28;20027;-85
2021/05/11 05:21:51;;;;;;;9.63;1.40;;;;;;;5.39;83.16;99296.28;4978857;28;20034;-86
2021/05/11 05:24:25;;;;;;;6.72;1.30;;;;;;;5.38;82.84;99294.66;4983669;28;20174;-85
2021/05/11 05:26:52;;;;;;;6.63;1.00;;;;;;;5.41;83.10;99307.59;4970909;28;20065;-86
2021/05/11 05:29:18;;;;;;;5.72;1.15;;;;;;;5.34;82.98;99296.81;4970771;28;20026;-86
2021/05/11 05:31:43;;;;;;;7.22;1.50;;;;;;;5.25;83.14;99281.91;5004331;28;20041;-86
2021/05/11 05:34:09;;;;;;;11.55;1.48;;;;;;;5.47;83.06;99305.03;4977511;28;20022;-86
2021/05/11 05:36:34;;;;;;;4.97;1.08;;;;;;;5.49;83.10;99304.88;4986895;28;20394;-85
2021/05/11 05:39:00;;;;;;;8.30;1.50;;;;;;;5.55;83.59;99306.81;4998016;28;20383;-85
2021/05/11 05:41:25;;;;;;;5.28;1.13;;;;;;;5.54;83.14;99294.50;4971330;28;20502;-85
2021/05/11 05:43:51;;;;;;;6.95;1.50;;;;;;;5.73;82.71;99315.34;4972276;28;20545;-85
2021/05/11 05:46:17;;;;;;;4.43;1.25;;;;;;;5.80;82.56;99315.47;4964054;28;20023;-85
2021/05/11 05:48:43;;;;;;;9.40;1.40;;;;;;;5.79;82.30;99288.97;4962054;28;20023;-86
2021/05/11 05:51:10;;;;;;;7.60;1.42;;;;;;;5.99;82.63;99316.81;4972330;28;20030;-85
2021/05/11 05:53:40;;;;;;;5.97;1.65;;;;;;;6.07;81.90;99308.72;4969280;28;20027;-86
2021/05/11 05:56:06;;;;;;;6.13;1.52;;;;;;;6.15;81.80;99313.16;4971231;28;20031;-85
2021/05/11 05:58:33;;;;;;;7.57;1.77;;;;;;;6.23;81.21;99313.06;4986006;28;20113;-86
2021/05/11 06:01:02;;;;;;;7.82;1.40;;;;;;;6.35;80.88;99316.94;4982024;28;20030;-86
2021/05/11 06:03:37;;;;;;;4.88;1.15;;;;;;;6.40;80.20;99316.38;4954148;28;20057;-85
2021/05/11 06:06:07;;;;;;;7.13;1.55;;;;;;;6.53;80.32;99334.44;4959057;28;20031;-85
2021/05/11 06:08:34;;;;;;;7.28;1.17;;;;;;;6.54;80.43;99326.25;4966396;28;20382;-85
2021/05/11 06:11:14;;;;;;;4.63;1.30;;;;;;;6.57;79.81;99325.03;4997581;28;20033;-85
2021/05/11 06:13:44;;;;;;;7.32;1.70;;;;;;;6.72;80.03;99331.22;4965680;28;20134;-83
2021/05/11 06:18:54;;;;;;;3.88;1.45;;;;;;;6.88;78.70;99332.84;4968527;28;20030;-84
2021/05/11 06:21:19;;;;;;;11.40;1.65;;;;;;;6.96;78.50;99338.09;4983585;28;20035;-86
2021/05/11 06:23:44;;;;;;;7.63;1.92;;;;;;;7.05;78.56;99330.78;4966299;28;20081;-84
2021/05/11 06:26:12;;;;;;;10.15;4.07;;;;;;;7.07;77.94;99327.94;4962342;28;20791;-83
2021/05/11 06:28:40;;;;;;;11.30;2.78;;;;;;;7.20;77.86;99333.44;4969944;28;20030;-85
2021/05/11 06:31:05;;;;;;;7.68;2.75;;;;;;;7.21;77.25;99324.38;4971417;28;20041;-84
2021/05/11 06:33:31;;;;;;;11.75;2.60;;;;;;;7.17;77.13;99318.59;4978242;28;20130;-85
2021/05/11 06:35:56;;;;;;;9.25;2.17;;;;;;;7.11;76.96;99289.09;4996595;28;20027;-84
2021/05/11 06:38:22;;;;;;;6.70;2.10;;;;;;;7.42;77.27;99340.44;4996963;28;20113;-86
2021/05/11 06:40:47;;;;;;;7.35;1.70;;;;;;;7.51;76.71;99337.63;4982945;28;20027;-84
2021/05/11 06:43:17;;;;;;;7.93;1.92;;;;;;;7.59;76.26;99350.88;4980955;28;20442;-84
2021/05/11 06:46:17;;;;;;;8.75;2.50;;;;;;;7.65;76.15;99344.78;4978957;28;20053;-86
2021/05/11 06:48:34;;;;;;;6.43;1.60;;;;;;;7.79;76.46;99357.25;4973146;28;20477;-86
2021/05/11 06:53:51;;;;;;;12.15;4.88;;;;;;;7.92;75.63;99364.56;4971357;28;20047;-85
2021/05/11 06:56:18;;;;;;;8.77;3.22;;;;;;;8.00;75.39;99351.06;4970293;28;20031;-85
2021/05/11 06:58:44;;;;;;;9.38;3.08;;;;;;;8.12;75.36;99356.69;4981150;28;20018;-85
2021/05/11 07:01:09;;;;;;;7.75;2.13;;;;;;;8.19;74.53;99357.56;4972249;28;20023;-86
2021/05/11 07:03:34;;;;;;;7.43;2.65;;;;;;;8.08;74.97;99339.38;4967895;28;20027;-84
2021/05/11 07:06:00;;;;;;;9.63;2.17;;;;;;;8.24;74.50;99365.84;4982840;28;20042;-85
2021/05/11 07:10:55;;;;;;;9.65;2.35;;;;;;;8.37;74.13;99367.81;4988204;28;20069;-85
2021/05/11 07:13:20;;;;;;;5.78;2.40;;;;;;;8.49;73.85;99368.94;5005945;28;20041;-85
2021/05/11 07:15:46;;;;;;;14.15;2.08;;;;;;;8.58;73.84;99372.31;4985968;28;20117;-87
2021/05/11 07:18:16;;;;;;;11.70;2.85;;;;;;;8.79;73.10;99372.22;4985895;28;20434;-85
2021/05/11 07:20:44;;;;;;;10.95;2.45;;;;;;;8.90;72.54;99380.72;4983592;28;20444;-85
2021/05/11 07:23:11;;;;;;;7.55;2.22;;;;;;;9.02;72.00;99381.78;4996920;28;20061;-85
2021/05/11 07:31:24;;;;;;;;;;;;;;;9.36;70.22;99390.81;4986188;28;20510;-85
2021/05/11 07:33:51;;;;;;;9.68;2.13;;;;;;;9.35;69.73;99397.22;4994269;28;19909;-84
2021/05/11 07:36:17;;;;;;;10.05;1.90;;;;;;;9.42;69.45;99406.09;4981109;28;20022;-85
2021/05/11 07:38:44;;;;;;;8.23;1.95;;;;;;;9.49;69.11;99404.25;4979075;28;20030;-85
2021/05/11 07:41:12;;;;;;;5.70;2.00;;;;;;;9.58;69.51;99400.38;4998401;28;20030;-85
2021/05/11 07:43:40;;;;;;;7.93;1.98;;;;;;;9.72;68.98;99409.28;5013721;28;20080;-86
2021/05/11 08:02:00;;;;;;;11.07;2.33;;;;;;;9.85;68.32;99401.25;4988474;28;20045;-85
2021/05/11 08:04:52;;;;;;;14.65;2.72;;;;;;;9.96;67.21;99397.13;5012512;28;20022;-85
2021/05/11 08:18:16;;;;;;;8.60;1.63;;;;;;;10.57;63.93;99415.75;4989094;28;20481;-84
2021/05/11 08:28:17;;;;;;;7.10;1.58;;;;;;;10.84;62.22;99415.69;4999420;28;20026;-84
2021/05/11 08:30:43;;;;;;;8.07;2.08;;;;;;;10.93;61.42;99424.38;4991578;28;20393;-84
2021/05/11 08:33:08;;;;;;;7.60;2.03;;;;;;;10.98;60.24;99419.19;4993108;28;20080;-84
2021/05/11 08:35:33;;;;;;;8.73;1.85;;;;;;;10.95;59.75;99417.72;4993758;28;20026;-84
2021/05/11 08:37:59;;;;;;;9.90;2.35;;;;;;;10.93;59.62;99381.38;4985137;28;20078;-85
2021/05/11 08:40:25;;;;;;;9.55;2.45;;;;;;;11.10;59.30;99420.19;4988699;28;20031;-85
2021/05/11 08:42:51;;;;;;;13.77;2.65;;;;;;;11.06;58.53;99435.13;4986230;28;20470;-84
2021/05/11 08:45:17;;;;;;;12.10;2.78;;;;;;;11.14;58.75;99432.19;4999107;28;20034;-84
2021/05/11 08:47:49;;;;;;;11.02;2.13;;;;;;;11.35;58.98;99436.47;5015688;28;20033;-85
2021/05/11 08:50:16;;;;;;;11.05;2.38;;;;;;;11.57;58.11;99425.38;4975380;28;20033;-85
2021/05/11 08:53:01;;;;;;;10.90;2.60;;;;;;;11.73;57.90;99426.75;4988940;28;20022;-84
2021/05/11 08:59:54;;;;;;;9.02;3.10;;;;;;;11.96;57.68;99424.38;4973578;28;20076;-84
2021/05/11 09:26:11;;;;;;;8.95;1.90;;;;;;;13.51;50.78;99455.06;4989571;28;20029;-84
2021/05/11 09:28:44;;;;;;;9.77;2.42;;;;;;;13.46;50.79;99465.72;4980012;28;20022;-85
2021/05/11 10:40:33;;;;;;;8.55;1.88;;;;;;;14.49;42.99;99508.78;4984547;28;20022;-85
2021/05/11 10:48:28;;;;;;;8.43;1.65;;;;;;;14.08;44.50;99523.94;4994956;28;20555;-85
2021/05/11 10:50:59;;;;;;;9.60;2.20;;;;;;;14.21;43.81;99531.03;4975358;28;20051;-84
2021/05/11 10:53:47;;;;;;;7.43;2.65;;;;;;;14.21;43.53;99512.13;4992206;28;20041;-84
2021/05/11 10:56:27;;;;;;;5.18;1.83;;;;;;;14.20;44.57;99517.75;4994175;28;20382;-85
2021/05/11 11:02:04;;;;;;;11.75;2.08;;;;;;;13.96;43.83;99514.13;4972432;28;20140;-85
2021/05/11 11:04:43;;;;;;;3.50;1.60;;;;;;;14.44;43.09;99516.75;5009521;28;20056;-85
2021/05/11 11:07:09;;;;;;;9.32;2.20;;;;;;;14.83;43.21;99519.09;5014660;28;20018;-85
2021/05/11 11:09:37;;;;;;;6.43;1.80;;;;;;;15.09;42.98;99515.94;4990210;28;20029;-85
2021/05/11 11:12:05;;;;;;;8.27;2.28;;;;;;;15.55;42.34;99529.66;4994755;28;20023;-86
2021/05/11 11:14:37;;;;;;;5.03;1.77;;;;;;;15.78;40.31;99523.41;4992593;28;20056;-85
2021/05/11 11:17:14;;;;;;;4.65;1.30;;;;;;;15.85;38.54;99517.81;4974649;28;20110;-85
2021/05/11 11:19:40;;;;;;;6.93;2.17;;;;;;;15.63;39.62;99521.16;5006789;28;20030;-85
2021/05/11 11:24:51;;;;;;;6.95;1.95;;;;;;;15.44;38.36;99527.81;4992992;28;20040;-84
2021/05/11 11:27:23;;;;;;;5.85;2.13;;;;;;;15.15;37.89;99531.22;4993858;28;20034;-85
2021/05/11 11:30:00;;;;;;;6.00;2.45;;;;;;;15.42;37.66;99532.63;4989171;28;20022;-85
2021/05/11 11:32:26;;;;;;;6.22;2.05;;;;;;;15.96;37.03;99531.34;5006943;28;20053;-85
2021/05/11 11:34:56;;;;;;;7.03;2.10;;;;;;;15.72;37.19;99544.16;4991981;28;20042;-86
2021/05/11 11:37:24;;;;;;;5.03;1.77;;;;;;;15.29;37.72;99545.34;4989693;28;20569;-86
2021/05/11 11:39:51;;;;;;;6.70;1.50;;;;;;;15.13;38.12;99538.75;4981886;28;20069;-85
2021/05/11 11:42:25;;;;;;;4.55;1.23;;;;;;;14.88;39.55;99521.94;5021590;28;20030;-86
2021/05/11 11:44:58;;;;;;;4.88;1.25;;;;;;;14.95;40.43;99553.25;4985429;28;20022;-85
2021/05/11 11:47:24;;;;;;;4.05;1.85;;;;;;;15.21;39.54;99545.69;5007140;28;20034;-85
2021/05/11 11:49:55;;;;;;;5.75;1.60;;;;;;;14.99;39.19;99529.22;5018392;28;20096;-85
2021/05/11 12:00:19;;;;;;;5.80;1.60;;;;;;;15.08;40.56;99548.63;4988673;28;20026;-86
2021/05/11 12:03:00;;;;;;;6.50;1.70;;;;;;;15.14;39.67;99542.31;5022618;28;20034;-86
2021/05/11 12:05:30;;;;;;;5.57;1.50;;;;;;;15.13;39.15;99554.19;5018218;28;20058;-86
2021/05/11 12:08:21;;;;;;;8.93;1.88;;;;;;;15.08;39.24;99543.22;4988724;28;20026;-86
2021/05/11 12:11:07;;;;;;;6.50;1.58;;;;;;;15.15;40.45;99554.78;5013902;28;20508;-87
2021/05/11 12:13:37;;;;;;;9.65;2.28;;;;;;;14.91;40.38;99548.53;5003716;28;20121;-84
2021/05/11 12:16:15;;;;;;;7.07;1.60;;;;;;;15.45;40.57;99542.97;5021829;28;20029;-86
2021/05/11 12:19:09;;;;;;;6.80;1.75;;;;;;;15.91;40.70;99544.81;5022626;28;20019;-86
2021/05/11 12:21:54;;;;;;;5.95;1.58;;;;;;;16.18;39.36;99546.94;4989924;28;20026;-87
2021/05/11 12:24:24;;;;;;;3.85;1.50;;;;;;;16.69;38.48;99543.25;4983153;28;20028;-84
2021/05/11 12:26:49;;;;;;;7.13;1.63;;;;;;;16.32;38.67;99544.75;4990096;28;20823;-83
2021/05/11 12:29:16;;;;;;;4.70;1.98;;;;;;;16.18;38.51;99542.34;5008457;28;20018;-86
2021/05/11 12:31:51;;;;;;;6.60;1.90;;;;;;;16.12;38.06;99554.16;4981516;28;20030;-88
2021/05/11 12:34:22;;;;;;;8.60;2.42;;;;;;;16.36;38.40;99543.22;4994637;28;20098;-84
2021/05/11 12:36:52;;;;;;;6.43;1.95;;;;;;;16.41;37.75;99549.56;4991357;28;20973;-84
2021/05/11 12:39:42;;;;;;;6.30;1.67;;;;;;;16.11;37.96;99549.78;5014373;28;20022;-84
2021/05/11 12:42:18;;;;;;;7.38;2.60;;;;;;;15.94;39.11;99552.47;4987755;28;20037;-84
2021/05/11 12:44:45;;;;;;;7.20;1.55;;;;;;;16.52;39.86;99564.13;5023256;28;20058;-86
2021/05/11 12:47:15;;;;;;;5.30;1.92;;;;;;;16.04;38.20;99555.38;5023133;28;20030;-86
2021/05/11 12:49:40;;;;;;;5.30;1.80;;;;;;;15.49;39.06;99566.66;4989621;28;20022;-86
2021/05/11 12:52:09;;;;;;;6.20;1.95;;;;;;;15.34;40.09;99542.75;4989481;28;20033;-83
2021/05/11 12:54:40;;;;;;;5.43;2.72;;;;;;;15.80;39.82;99551.91;4979823;28;20453;-87
2021/05/11 13:09:22;;;;;;;4.57;1.50;;;;;;;15.63;39.59;99564.50;4989873;28;20026;-84
2021/05/11 13:25:36;;;;;;;11.82;5.10;;;;;;;15.57;39.29;99566.28;4988797;28;20161;-86
2021/05/11 13:35:55;;;;;;;5.35;1.52;;;;;;;15.48;39.86;99558.75;4991723;28;20046;-86
2021/05/11 13:38:21;;;;;;;6.50;1.58;;;;;;;15.83;39.16;99570.41;4990095;28;20076;-85
2021/05/11 13:40:46;;;;;;;4.43;1.60;;;;;;;15.99;38.25;99565.28;5023791;28;20852;-85
2021/05/11 13:43:12;;;;;;;3.75;1.25;;;;;;;15.76;38.33;99564.28;4987150;28;20038;-86
2021/05/11 13:45:37;;;;;;;7.03;1.77;;;;;;;15.56;39.32;99583.63;4988445;28;20026;-86
2021/05/11 13:48:06;;;;;;;4.10;1.60;;;;;;;15.42;39.07;99562.41;5003126;28;20026;-86
2021/05/11 13:53:06;;;;;;;2.80;1.50;;;;;;;16.16;38.55;99549.88;4956242;28;20050;-86
2021/05/11 13:55:42;;;;;;;4.65;1.63;;;;;;;16.23;37.94;99566.03;4968882;28;20029;-86
2021/05/11 14:03:35;;;;;;;4.03;1.50;;;;;;;16.29;38.69;99566.94;4968613;28;20038;-86
2021/05/11 14:06:00;;;;;;;6.32;1.40;;;;;;;17.11;37.66;99578.19;4965971;28;20030;-84
2021/05/11 14:08:26;;;;;;;6.00;1.42;;;;;;;17.11;36.71;99583.59;4976974;28;20035;-86
2021/05/11 14:10:51;;;;;;;3.88;1.20;;;;;;;17.28;36.89;99571.91;4959745;28;20392;-85
2021/05/11 14:13:16;;;;;;;2.88;1.23;;;;;;;16.90;36.21;99571.59;4965956;28;20402;-85
2021/05/11 14:15:42;;;;;;;4.13;1.25;;;;;;;17.08;36.26;99581.38;4957139;28;20030;-87
2021/05/11 14:18:07;;;;;;;4.82;1.73;;;;;;;17.25;35.75;99572.41;4972248;28;20031;-86
2021/05/11 14:20:33;;;;;;;5.40;1.73;;;;;;;17.10;35.71;99576.53;4972638;28;20451;-86
2021/05/11 14:22:58;;;;;;;4.47;1.13;;;;;;;16.69;35.87;99575.00;4971402;28;20498;-86
2021/05/11 14:25:23;;;;;;;4.82;1.48;;;;;;;16.41;36.99;99592.16;4972997;28;20077;-86
2021/05/11 14:27:49;;;;;;;5.65;1.70;;;;;;;16.33;36.38;99577.09;4962167;28;20398;-86
2021/05/11 14:30:15;;;;;;;4.75;1.85;;;;;;;16.91;37.57;99575.16;4950923;28;20051;-86
2021/05/11 14:32:40;;;;;;;8.82;3.03;;;;;;;16.32;36.21;99578.13;4972340;28;20094;-86
2021/05/11 14:35:06;;;;;;;4.43;1.27;;;;;;;15.88;37.91;99566.13;4971434;28;20031;-86
2021/05/11 14:37:31;;;;;;;5.82;1.50;;;;;;;16.02;38.88;99578.38;4970862;28;20030;-86
2021/05/11 14:39:57;;;;;;;3.08;1.20;;;;;;;16.58;38.11;99594.88;4970213;28;20025;-86
2021/05/11 14:42:22;;;;;;;3.92;1.35;;;;;;;16.42;38.66;99597.31;4985234;28;20391;-85
2021/05/11 14:44:52;;;;;;;5.28;1.58;;;;;;;16.05;38.44;99599.56;4972242;28;20027;-86
2021/05/11 14:47:18;;;;;;;5.43;1.35;;;;;;;16.47;38.38;99577.59;5000895;28;20050;-86
2021/05/11 14:49:43;;;;;;;5.53;1.50;;;;;;;17.30;37.35;99608.63;4965300;28;20050;-86
2021/05/11 14:52:12;;;;;;;4.38;1.70;;;;;;;18.00;37.00;99582.72;4968176;28;21618;-86
2021/05/11 14:54:38;;;;;;;5.30;1.45;;;;;;;18.38;35.75;99602.72;4971189;28;20031;-86
2021/05/11 14:57:03;;;;;;;6.82;1.60;;;;;;;18.57;33.65;99588.78;4968462;28;20056;-86
2021/05/11 14:59:28;;;;;;;3.63;1.40;;;;;;;18.88;32.82;99576.31;4969283;28;20061;-85
2021/05/11 15:01:54;;;;;;;6.40;1.60;;;;;;;19.27;32.45;99608.78;4971316;28;20470;-83
2021/05/11 15:04:19;;;;;;;6.78;1.70;;;;;;;18.63;32.83;99588.59;4988151;28;20034;-84
2021/05/11 15:06:45;;;;;;;5.00;1.40;;;;;;;18.25;33.44;99614.00;4949704;28;20474;-86
2021/05/11 15:09:10;;;;;;;4.95;1.50;;;;;;;18.12;34.62;99601.63;4971183;28;20026;-87
2021/05/11 15:11:35;;;;;;;3.25;1.02;;;;;;;17.56;35.07;99595.41;4965954;28;20038;-85
2021/05/11 15:14:01;;;;;;;4.30;1.60;;;;;;;17.07;36.26;99612.34;4988743;28;20081;-85
2021/05/11 15:16:28;;;;;;;3.63;1.50;;;;;;;16.51;37.00;99618.63;4972752;28;20113;-85
2021/05/11 15:18:54;;;;;;;4.53;2.10;;;;;;;16.26;37.81;99609.75;4971626;28;20184;-85
2021/05/11 15:21:19;;;;;;;3.10;1.45;;;;;;;16.03;37.11;99624.19;4956550;28;20536;-85
2021/05/11 15:23:48;;;;;;;4.57;1.70;;;;;;;15.77;37.39;99617.44;4976003;28;20030;-85
2021/05/11 15:26:14;;;;;;;4.70;1.27;;;;;;;16.32;37.26;99631.56;4952374;28;20015;-86
2021/05/11 15:28:40;;;;;;;4.80;2.35;;;;;;;16.53;36.92;99611.91;4967062;28;20058;-85
2021/05/11 15:31:07;;;;;;;5.07;1.85;;;;;;;16.45;37.30;99615.00;4975779;28;20465;-85
2021/05/11 15:33:32;;;;;;;7.03;1.92;;;;;;;16.40;37.81;99623.84;4953109;29;20031;-85
2021/05/11 15:35:58;;;;;;;4.57;1.55;;;;;;;16.37;36.86;99618.91;4990384;28;20023;-85
2021/05/11 15:38:25;;;;;;;3.72;1.48;;;;;;;16.22;36.98;99626.75;4987968;28;20401;-84
2021/05/11 15:40:50;;;;;;;4.30;1.27;;;;;;;16.59;36.29;99618.25;4972345;28;20031;-84
2021/05/11 15:43:15;;;;;;;6.35;1.52;;;;;;;16.21;36.79;99628.66;4955926;28;20031;-85
2021/05/11 15:45:41;;;;;;;2.78;1.42;;;;;;;15.99;36.85;99625.75;4953950;28;20038;-85
2021/05/11 15:48:09;;;;;;;5.00;1.60;;;;;;;15.79;37.24;99630.75;4971374;28;20597;-85
2021/05/11 15:50:36;;;;;;;8.02;1.90;;;;;;;15.61;37.14;99632.50;4996561;28;20134;-85
2021/05/11 15:53:04;;;;;;;5.72;1.58;;;;;;;15.35;36.82;99617.53;4958873;28;20114;-85
2021/05/11 15:55:30;;;;;;;6.65;2.13;;;;;;;15.08;37.57;99629.84;4971977;28;20034;-85
2021/05/11 15:57:57;;;;;;;7.28;2.67;;;;;;;15.12;38.14;99625.63;4971249;28;20023;-85